sensor_id;sensor_type;location;lat;lon;timestamp;pressure;altitude;pressure_sealevel;temperature;humidity
29371;BME280;16357;52.188;7.838;2022-09-09T00:01:31;100110.34;;;19.55;55.51
29371;BME280;16357;52.188;7.838;2022-09-09T00:04:10;100110.34;;;19.55;55.73
29371;BME280;16357;52.188;7.838;2022-09-09T00:06:49;100108.44;;;19.56;55.70
29371;BME280;16357;52.188;7.838;2022-09-09T00:09:21;100105.72;;;19.56;55.76
29371;BME280;16357;52.188;7.838;2022-09-09T00:12:10;100103.81;;;19.56;55.96
29371;BME280;16357;52.188;7.838;2022-09-09T00:17:17;100096.25;;;19.58;56.00
29371;BME280;16357;52.188;7.838;2022-09-09T00:19:58;100095.22;;;19.59;55.95
29371;BME280;16357;52.188;7.838;2022-09-09T00:22:29;100093.31;;;19.60;56.01
29371;BME280;16357;52.188;7.838;2022-09-09T00:25:31;100101.22;;;19.61;56.09
29371;BME280;16357;52.188;7.838;2022-09-09T00:28:00;100097.69;;;19.61;56.51
29371;BME280;16357;52.188;7.838;2022-09-09T00:30:31;100101.84;;;19.63;56.29
29371;BME280;16357;52.188;7.838;2022-09-09T00:33:22;100101.84;;;19.63;56.28
29371;BME280;16357;52.188;7.838;2022-09-09T00:35:59;100103.72;;;19.63;56.31
29371;BME280;16357;52.188;7.838;2022-09-09T00:38:33;100090.34;;;19.61;56.55
29371;BME280;16357;52.188;7.838;2022-09-09T00:43:38;100101.00;;;19.63;56.63
29371;BME280;16357;52.188;7.838;2022-09-09T00:49:15;100093.66;;;19.63;56.75
29371;BME280;16357;52.188;7.838;2022-09-09T00:54:40;100084.69;;;19.63;56.91
29371;BME280;16357;52.188;7.838;2022-09-09T00:57:26;100090.34;;;19.61;56.91
29371;BME280;16357;52.188;7.838;2022-09-09T01:00:17;100102.91;;;19.62;56.98
29371;BME280;16357;52.188;7.838;2022-09-09T01:02:59;100098.75;;;19.60;57.40
29371;BME280;16357;52.188;7.838;2022-09-09T01:05:39;100100.41;;;19.61;56.86
29371;BME280;16357;52.188;7.838;2022-09-09T01:08:25;100099.59;;;19.60;57.27
29371;BME280;16357;52.188;7.838;2022-09-09T01:10:54;100091.63;;;19.59;57.29
29371;BME280;16357;52.188;7.838;2022-09-09T01:13:29;100099.81;;;19.59;57.16
29371;BME280;16357;52.188;7.838;2022-09-09T01:16:01;100098.97;;;19.58;57.26
29371;BME280;16357;52.188;7.838;2022-09-09T01:18:32;100088.56;;;19.55;57.39
29371;BME280;16357;52.188;7.838;2022-09-09T01:24:18;100098.84;;;19.53;57.47
29371;BME280;16357;52.188;7.838;2022-09-09T01:26:48;100091.75;;;19.52;57.40
29371;BME280;16357;52.188;7.838;2022-09-09T01:29:18;100091.16;;;19.50;57.62
29371;BME280;16357;52.188;7.838;2022-09-09T01:32:00;100093.88;;;19.50;57.61
29371;BME280;16357;52.188;7.838;2022-09-09T01:34:33;100090.53;;;19.48;57.73
29371;BME280;16357;52.188;7.838;2022-09-09T01:37:10;100085.56;;;19.45;57.92
29371;BME280;16357;52.188;7.838;2022-09-09T01:39:40;100089.09;;;19.45;57.50
29371;BME280;16357;52.188;7.838;2022-09-09T01:42:09;100085.81;;;19.43;58.03
29371;BME280;16357;52.188;7.838;2022-09-09T01:44:38;100091.47;;;19.42;58.16
29371;BME280;16357;52.188;7.838;2022-09-09T01:47:05;100080.81;;;19.40;58.42
29371;BME280;16357;52.188;7.838;2022-09-09T01:49:32;100088.16;;;19.40;58.39
29371;BME280;16357;52.188;7.838;2022-09-09T01:52:01;100101.13;;;19.38;58.49
29371;BME280;16357;52.188;7.838;2022-09-09T01:54:31;100108.25;;;19.39;58.27
29371;BME280;16357;52.188;7.838;2022-09-09T01:57:06;100116.63;;;19.37;58.70
29371;BME280;16357;52.188;7.838;2022-09-09T02:02:30;100122.06;;;19.37;58.65
29371;BME280;16357;52.188;7.838;2022-09-09T02:05:30;100120.44;;;19.36;58.32
29371;BME280;16357;52.188;7.838;2022-09-09T02:08:06;100128.81;;;19.35;58.52
29371;BME280;16357;52.188;7.838;2022-09-09T02:10:46;100130.09;;;19.32;58.52
29371;BME280;16357;52.188;7.838;2022-09-09T02:13:18;100134.09;;;19.29;58.67
29371;BME280;16357;52.188;7.838;2022-09-09T02:18:27;100129.94;;;19.27;58.46
29371;BME280;16357;52.188;7.838;2022-09-09T02:20:56;100132.31;;;19.23;58.89
29371;BME280;16357;52.188;7.838;2022-09-09T02:23:23;100124.59;;;19.20;58.64
29371;BME280;16357;52.188;7.838;2022-09-09T02:25:51;100124.81;;;19.19;58.83
29371;BME280;16357;52.188;7.838;2022-09-09T02:28:20;100126.09;;;19.16;58.58
29371;BME280;16357;52.188;7.838;2022-09-09T02:30:50;100125.75;;;19.13;58.71
29371;BME280;16357;52.188;7.838;2022-09-09T02:33:27;100125.97;;;19.11;58.57
29371;BME280;16357;52.188;7.838;2022-09-09T02:35:55;100126.66;;;19.06;58.94
29371;BME280;16357;52.188;7.838;2022-09-09T02:38:29;100127.69;;;19.05;58.96
29371;BME280;16357;52.188;7.838;2022-09-09T02:40:58;100124.63;;;19.02;59.05
29371;BME280;16357;52.188;7.838;2022-09-09T02:43:25;100120.69;;;18.98;58.96
29371;BME280;16357;52.188;7.838;2022-09-09T02:46:08;100125.53;;;18.96;58.65
29371;BME280;16357;52.188;7.838;2022-09-09T02:48:43;100116.16;;;18.92;58.66
29371;BME280;16357;52.188;7.838;2022-09-09T02:54:25;100124.84;;;18.82;58.84
29371;BME280;16357;52.188;7.838;2022-09-09T02:56:53;100120.31;;;18.76;58.77
29371;BME280;16357;52.188;7.838;2022-09-09T02:59:22;100124.72;;;18.70;59.09
29371;BME280;16357;52.188;7.838;2022-09-09T03:01:48;100114.53;;;18.65;59.37
29371;BME280;16357;52.188;7.838;2022-09-09T03:04:15;100130.47;;;18.62;59.36
29371;BME280;16357;52.188;7.838;2022-09-09T03:06:41;100127.34;;;18.58;59.42
29371;BME280;16357;52.188;7.838;2022-09-09T03:09:08;100132.41;;;18.55;59.65
29371;BME280;16357;52.188;7.838;2022-09-09T03:11:36;100125.53;;;18.52;59.78
29371;BME280;16357;52.188;7.838;2022-09-09T03:14:04;100128.69;;;18.49;60.06
29371;BME280;16357;52.188;7.838;2022-09-09T03:16:31;100128.09;;;18.47;59.92
29371;BME280;16357;52.188;7.838;2022-09-09T03:19:00;100128.28;;;18.46;60.13
29371;BME280;16357;52.188;7.838;2022-09-09T03:21:27;100125.81;;;18.44;60.42
29371;BME280;16357;52.188;7.838;2022-09-09T03:23:53;100127.72;;;18.43;60.32
29371;BME280;16357;52.188;7.838;2022-09-09T03:26:19;100113.28;;;18.43;60.55
29371;BME280;16357;52.188;7.838;2022-09-09T03:28:46;100123.09;;;18.44;60.86
29371;BME280;16357;52.188;7.838;2022-09-09T03:31:12;100124.75;;;18.45;61.03
29371;BME280;16357;52.188;7.838;2022-09-09T03:33:39;100123.47;;;18.48;61.05
29371;BME280;16357;52.188;7.838;2022-09-09T03:36:07;100124.91;;;18.50;61.21
29371;BME280;16357;52.188;7.838;2022-09-09T03:38:37;100120.91;;;18.53;60.98
29371;BME280;16357;52.188;7.838;2022-09-09T03:41:03;100118.81;;;18.55;61.21
29371;BME280;16357;52.188;7.838;2022-09-09T03:43:32;100120.03;;;18.59;60.99
29371;BME280;16357;52.188;7.838;2022-09-09T03:45:59;100119.59;;;18.62;60.97
29371;BME280;16357;52.188;7.838;2022-09-09T03:48:26;100117.47;;;18.64;60.75
29371;BME280;16357;52.188;7.838;2022-09-09T03:50:54;100119.97;;;18.65;60.67
29371;BME280;16357;52.188;7.838;2022-09-09T03:53:24;100118.06;;;18.66;60.65
29371;BME280;16357;52.188;7.838;2022-09-09T03:55:53;100108.88;;;18.67;60.51
29371;BME280;16357;52.188;7.838;2022-09-09T03:58:24;100113.25;;;18.68;60.52
29371;BME280;16357;52.188;7.838;2022-09-09T04:00:58;100114.06;;;18.69;60.43
29371;BME280;16357;52.188;7.838;2022-09-09T04:03:26;100111.00;;;18.65;60.68
29371;BME280;16357;52.188;7.838;2022-09-09T04:05:55;100112.88;;;18.64;60.75
29371;BME280;16357;52.188;7.838;2022-09-09T04:08:22;100108.28;;;18.65;60.73
29371;BME280;16357;52.188;7.838;2022-09-09T04:10:52;100112.03;;;18.64;60.57
29371;BME280;16357;52.188;7.838;2022-09-09T04:13:19;100117.47;;;18.64;60.84
29371;BME280;16357;52.188;7.838;2022-09-09T04:15:54;100113.91;;;18.63;60.52
29371;BME280;16357;52.188;7.838;2022-09-09T04:18:21;100119.34;;;18.63;60.67
29371;BME280;16357;52.188;7.838;2022-09-09T04:20:49;100114.16;;;18.62;60.92
29371;BME280;16357;52.188;7.838;2022-09-09T04:23:17;100109.75;;;18.61;60.84
29371;BME280;16357;52.188;7.838;2022-09-09T04:25:48;100114.16;;;18.62;61.05
29371;BME280;16357;52.188;7.838;2022-09-09T04:28:16;100114.16;;;18.62;61.02
29371;BME280;16357;52.188;7.838;2022-09-09T04:30:44;100122.91;;;18.64;61.00
29371;BME280;16357;52.188;7.838;2022-09-09T04:33:12;100126.69;;;18.63;60.88
29371;BME280;16357;52.188;7.838;2022-09-09T04:35:44;100119.13;;;18.65;60.84
29371;BME280;16357;52.188;7.838;2022-09-09T04:38:10;100115.59;;;18.64;61.06
29371;BME280;16357;52.188;7.838;2022-09-09T04:40:37;100114.75;;;18.64;61.07
29371;BME280;16357;52.188;7.838;2022-09-09T04:43:07;100123.75;;;18.64;60.96
29371;BME280;16357;52.188;7.838;2022-09-09T04:45:40;100120.19;;;18.64;60.80
29371;BME280;16357;52.188;7.838;2022-09-09T04:48:07;100118.53;;;18.63;60.99
29371;BME280;16357;52.188;7.838;2022-09-09T04:50:34;100124.78;;;18.63;61.12
29371;BME280;16357;52.188;7.838;2022-09-09T04:53:04;100124.78;;;18.63;60.86
29371;BME280;16357;52.188;7.838;2022-09-09T04:55:31;100129.59;;;18.61;61.35
29371;BME280;16357;52.188;7.838;2022-09-09T04:58:03;100130.47;;;18.62;61.11
29371;BME280;16357;52.188;7.838;2022-09-09T05:00:30;100130.47;;;18.62;61.27
29371;BME280;16357;52.188;7.838;2022-09-09T05:02:56;100128.78;;;18.61;61.09
29371;BME280;16357;52.188;7.838;2022-09-09T05:05:23;100128.78;;;18.61;61.38
29371;BME280;16357;52.188;7.838;2022-09-09T05:07:49;100122.53;;;18.60;61.48
29371;BME280;16357;52.188;7.838;2022-09-09T05:10:16;100130.47;;;18.62;61.39
29371;BME280;16357;52.188;7.838;2022-09-09T05:12:52;100130.22;;;18.63;61.08
29371;BME280;16357;52.188;7.838;2022-09-09T05:15:19;100140.06;;;18.64;61.38
29371;BME280;16357;52.188;7.838;2022-09-09T05:17:47;100139.19;;;18.64;61.36
29371;BME280;16357;52.188;7.838;2022-09-09T05:20:13;100129.19;;;18.64;61.46
29371;BME280;16357;52.188;7.838;2022-09-09T05:22:42;100131.66;;;18.66;61.30
29371;BME280;16357;52.188;7.838;2022-09-09T05:25:09;100127.28;;;18.65;61.43
29371;BME280;16357;52.188;7.838;2022-09-09T05:27:36;100116.63;;;18.63;61.33
29371;BME280;16357;52.188;7.838;2022-09-09T05:30:03;100121.25;;;18.63;61.16
29371;BME280;16357;52.188;7.838;2022-09-09T05:32:30;100121.25;;;18.63;61.50
29371;BME280;16357;52.188;7.838;2022-09-09T05:35:00;100129.59;;;18.61;61.30
29371;BME280;16357;52.188;7.838;2022-09-09T05:37:27;100121.44;;;18.61;61.85
29371;BME280;16357;52.188;7.838;2022-09-09T05:39:55;100124.16;;;18.61;61.91
29371;BME280;16357;52.188;7.838;2022-09-09T05:42:22;100126.69;;;18.63;61.96
29371;BME280;16357;52.188;7.838;2022-09-09T05:44:49;100134.63;;;18.64;62.10
29371;BME280;16357;52.188;7.838;2022-09-09T05:47:17;100135.81;;;18.69;62.33
29371;BME280;16357;52.188;7.838;2022-09-09T05:49:43;100129.91;;;18.72;62.29
29371;BME280;16357;52.188;7.838;2022-09-09T05:52:10;100136.41;;;18.77;62.46
29371;BME280;16357;52.188;7.838;2022-09-09T05:54:36;100137.59;;;18.81;62.21
29371;BME280;16357;52.188;7.838;2022-09-09T05:57:04;100138.56;;;18.87;62.04
29371;BME280;16357;52.188;7.838;2022-09-09T05:59:31;100134.13;;;18.93;62.61
29371;BME280;16357;52.188;7.838;2022-09-09T06:01:58;100140.31;;;19.00;62.27
29371;BME280;16357;52.188;7.838;2022-09-09T06:04:25;100133.75;;;19.07;62.10
29371;BME280;16357;52.188;7.838;2022-09-09T06:06:52;100134.50;;;19.15;61.92
29371;BME280;16357;52.188;7.838;2022-09-09T06:09:18;100136.09;;;19.22;62.08
29371;BME280;16357;52.188;7.838;2022-09-09T06:11:45;100136.81;;;19.29;61.77
29371;BME280;16357;52.188;7.838;2022-09-09T06:14:11;100133.78;;;19.38;61.59
29371;BME280;16357;52.188;7.838;2022-09-09T06:16:38;100131.00;;;19.44;61.40
29371;BME280;16357;52.188;7.838;2022-09-09T06:19:05;100128.19;;;19.51;61.16
29371;BME280;16357;52.188;7.838;2022-09-09T06:21:34;100129.72;;;19.59;60.89
29371;BME280;16357;52.188;7.838;2022-09-09T06:24:03;100117.94;;;19.65;60.81
29371;BME280;16357;52.188;7.838;2022-09-09T06:26:32;100130.88;;;19.69;60.50
29371;BME280;16357;52.188;7.838;2022-09-09T06:29:00;100128.28;;;19.74;60.39
29371;BME280;16357;52.188;7.838;2022-09-09T06:31:28;100125.69;;;19.80;60.29
29371;BME280;16357;52.188;7.838;2022-09-09T06:33:58;100132.34;;;19.84;59.99
29371;BME280;16357;52.188;7.838;2022-09-09T06:36:27;100137.31;;;19.87;60.23
29371;BME280;16357;52.188;7.838;2022-09-09T06:38:54;100130.38;;;19.91;60.16
29371;BME280;16357;52.188;7.838;2022-09-09T06:41:22;100142.69;;;19.93;59.97
29371;BME280;16357;52.188;7.838;2022-09-09T06:43:49;100134.88;;;19.97;59.76
29371;BME280;16357;52.188;7.838;2022-09-09T06:46:18;100138.78;;;20.01;59.85
29371;BME280;16357;52.188;7.838;2022-09-09T06:48:45;100136.44;;;20.05;60.07
29371;BME280;16357;52.188;7.838;2022-09-09T06:51:14;100139.88;;;20.12;59.86
29371;BME280;16357;52.188;7.838;2022-09-09T06:53:42;100138.59;;;20.14;59.80
29371;BME280;16357;52.188;7.838;2022-09-09T06:58:43;100135.25;;;20.24;59.69
29371;BME280;16357;52.188;7.838;2022-09-09T07:01:12;100138.94;;;20.30;59.58
29371;BME280;16357;52.188;7.838;2022-09-09T07:03:40;100135.75;;;20.33;59.46
29371;BME280;16357;52.188;7.838;2022-09-09T07:06:14;100137.31;;;20.41;59.32
29371;BME280;16357;52.188;7.838;2022-09-09T07:08:41;100139.56;;;20.44;59.42
29371;BME280;16357;52.188;7.838;2022-09-09T07:11:08;100138.59;;;20.50;59.38
29371;BME280;16357;52.188;7.838;2022-09-09T07:13:37;100134.13;;;20.55;59.64
29371;BME280;16357;52.188;7.838;2022-09-09T07:16:12;100140.03;;;20.64;59.37
29371;BME280;16357;52.188;7.838;2022-09-09T07:18:39;100142.66;;;20.71;58.94
29371;BME280;16357;52.188;7.838;2022-09-09T07:21:05;100143.38;;;20.78;58.81
29371;BME280;16357;52.188;7.838;2022-09-09T07:23:32;100143.00;;;20.86;58.73
29371;BME280;16357;52.188;7.838;2022-09-09T07:26:02;100144.28;;;20.95;58.67
29371;BME280;16357;52.188;7.838;2022-09-09T07:28:33;100144.78;;;21.04;58.15
29371;BME280;16357;52.188;7.838;2022-09-09T07:31:01;100141.66;;;21.12;58.12
29371;BME280;16357;52.188;7.838;2022-09-09T07:33:30;100142.94;;;21.21;57.77
29371;BME280;16357;52.188;7.838;2022-09-09T07:36:09;100147.53;;;21.33;57.84
29371;BME280;16357;52.188;7.838;2022-09-09T07:38:47;100147.53;;;21.44;57.63
29371;BME280;16357;52.188;7.838;2022-09-09T07:41:22;100149.38;;;21.56;57.27
29371;BME280;16357;52.188;7.838;2022-09-09T07:43:49;100133.47;;;21.64;56.86
29371;BME280;16357;52.188;7.838;2022-09-09T07:46:18;100148.94;;;21.76;56.60
29371;BME280;16357;52.188;7.838;2022-09-09T07:48:51;100147.47;;;21.85;56.31
29371;BME280;16357;52.188;7.838;2022-09-09T07:51:20;100149.78;;;21.93;56.09
29371;BME280;16357;52.188;7.838;2022-09-09T07:53:52;100148.31;;;22.02;55.82
29371;BME280;16357;52.188;7.838;2022-09-09T07:56:19;100142.69;;;22.09;55.38
29371;BME280;16357;52.188;7.838;2022-09-09T07:58:49;100145.03;;;22.17;55.41
29371;BME280;16357;52.188;7.838;2022-09-09T08:01:22;100136.19;;;22.27;55.33
29371;BME280;16357;52.188;7.838;2022-09-09T08:03:56;100135.53;;;22.37;54.96
29371;BME280;16357;52.188;7.838;2022-09-09T08:06:26;100137.63;;;22.46;54.67
29371;BME280;16357;52.188;7.838;2022-09-09T08:08:53;100136.09;;;22.55;54.20
29371;BME280;16357;52.188;7.838;2022-09-09T08:11:23;100134.59;;;22.65;54.28
29371;BME280;16357;52.188;7.838;2022-09-09T08:13:51;100143.72;;;22.70;53.72
29371;BME280;16357;52.188;7.838;2022-09-09T08:16:24;100144.59;;;22.76;53.58
29371;BME280;16357;52.188;7.838;2022-09-09T08:18:52;100144.91;;;22.79;53.25
29371;BME280;16357;52.188;7.838;2022-09-09T08:21:25;100146.66;;;22.86;53.11
29371;BME280;16357;52.188;7.838;2022-09-09T08:23:54;100139.88;;;22.88;53.32
29371;BME280;16357;52.188;7.838;2022-09-09T08:26:34;100140.47;;;22.95;53.39
29371;BME280;16357;52.188;7.838;2022-09-09T08:29:03;100143.31;;;23.00;53.00
29371;BME280;16357;52.188;7.838;2022-09-09T08:31:32;100140.13;;;23.09;53.32
29371;BME280;16357;52.188;7.838;2022-09-09T08:34:00;100137.53;;;23.19;53.08
29371;BME280;16357;52.188;7.838;2022-09-09T08:36:31;100148.91;;;23.33;53.05
29371;BME280;16357;52.188;7.838;2022-09-09T08:39:00;100151.03;;;23.48;52.17
29371;BME280;16357;52.188;7.838;2022-09-09T08:41:36;100149.81;;;23.60;52.17
29371;BME280;16357;52.188;7.838;2022-09-09T08:50:13;100165.84;;;24.01;51.85
29371;BME280;16357;52.188;7.838;2022-09-09T08:52:54;100161.81;;;24.08;50.59
29371;BME280;16357;52.188;7.838;2022-09-09T08:58:15;100159.63;;;24.10;50.39
29371;BME280;16357;52.188;7.838;2022-09-09T09:01:00;100161.56;;;24.10;50.80
29371;BME280;16357;52.188;7.838;2022-09-09T09:06:04;100164.53;;;24.08;51.00
29371;BME280;16357;52.188;7.838;2022-09-09T09:08:44;100157.16;;;24.09;51.13
29371;BME280;16357;52.188;7.838;2022-09-09T09:11:14;100167.63;;;24.12;50.73
29371;BME280;16357;52.188;7.838;2022-09-09T09:13:57;100159.97;;;24.19;50.73
29371;BME280;16357;52.188;7.838;2022-09-09T09:16:57;100163.09;;;24.28;50.70
29371;BME280;16357;52.188;7.838;2022-09-09T09:19:26;100159.28;;;24.34;50.10
29371;BME280;16357;52.188;7.838;2022-09-09T09:22:04;100158.81;;;24.42;50.24
29371;BME280;16357;52.188;7.838;2022-09-09T09:27:40;100158.38;;;24.56;49.94
29371;BME280;16357;52.188;7.838;2022-09-09T09:30:16;100153.50;;;24.63;49.09
29371;BME280;16357;52.188;7.838;2022-09-09T09:33:05;100151.66;;;24.73;48.53
29371;BME280;16357;52.188;7.838;2022-09-09T09:35:33;100150.59;;;24.80;47.78
29371;BME280;16357;52.188;7.838;2022-09-09T09:38:16;100150.34;;;24.86;48.47
29371;BME280;16357;52.188;7.838;2022-09-09T09:41:03;100135.56;;;24.92;47.32
29371;BME280;16357;52.188;7.838;2022-09-09T09:43:34;100137.22;;;24.98;47.09
29371;BME280;16357;52.188;7.838;2022-09-09T09:46:17;100138.63;;;25.01;47.09
29371;BME280;16357;52.188;7.838;2022-09-09T09:48:56;100130.13;;;25.03;46.56
29371;BME280;16357;52.188;7.838;2022-09-09T09:51:23;100125.19;;;25.00;46.67
29371;BME280;16357;52.188;7.838;2022-09-09T09:53:51;100123.00;;;25.02;46.44
29371;BME280;16357;52.188;7.838;2022-09-09T09:56:27;100133.44;;;25.05;47.07
29371;BME280;16357;52.188;7.838;2022-09-09T09:58:58;100127.16;;;25.09;46.85
29371;BME280;16357;52.188;7.838;2022-09-09T10:01:28;100129.13;;;25.19;46.70
29371;BME280;16357;52.188;7.838;2022-09-09T10:04:01;100122.56;;;25.30;46.57
29371;BME280;16357;52.188;7.838;2022-09-09T10:06:35;100132.22;;;25.38;45.57
29371;BME280;16357;52.188;7.838;2022-09-09T10:09:17;100132.78;;;25.45;45.76
29371;BME280;16357;52.188;7.838;2022-09-09T10:14:38;100135.84;;;25.59;45.69
29371;BME280;16357;52.188;7.838;2022-09-09T10:22:39;100122.44;;;25.78;44.21
29371;BME280;16357;52.188;7.838;2022-09-09T10:34:03;100138.63;;;25.79;43.11
29371;BME280;16357;52.188;7.838;2022-09-09T10:36:34;100130.38;;;25.74;43.24
29371;BME280;16357;52.188;7.838;2022-09-09T10:39:36;100127.06;;;25.72;43.39
29371;BME280;16357;52.188;7.838;2022-09-09T10:42:09;100129.00;;;25.72;43.40
29371;BME280;16357;52.188;7.838;2022-09-09T10:47:56;100122.44;;;25.83;43.85
29371;BME280;16357;52.188;7.838;2022-09-09T10:56:16;100120.03;;;26.12;42.49
29371;BME280;16357;52.188;7.838;2022-09-09T10:58:56;100113.41;;;26.18;42.63
29371;BME280;16357;52.188;7.838;2022-09-09T11:01:31;100113.97;;;26.20;42.12
29371;BME280;16357;52.188;7.838;2022-09-09T11:04:06;100106.25;;;26.22;42.01
29371;BME280;16357;52.188;7.838;2022-09-09T11:06:42;100109.00;;;26.22;42.03
29371;BME280;16357;52.188;7.838;2022-09-09T11:09:16;100110.38;;;26.25;41.99
29371;BME280;16357;52.188;7.838;2022-09-09T11:14:30;100109.53;;;26.35;41.20
29371;BME280;16357;52.188;7.838;2022-09-09T11:17:13;100109.81;;;26.43;41.60
29371;BME280;16357;52.188;7.838;2022-09-09T11:19:44;100100.16;;;26.51;41.00
29371;BME280;16357;52.188;7.838;2022-09-09T11:25:06;100116.97;;;26.70;40.45
29371;BME280;16357;52.188;7.838;2022-09-09T11:31:02;100112.78;;;26.83;40.07
29371;BME280;16357;52.188;7.838;2022-09-09T11:33:55;100115.53;;;26.83;39.47
29371;BME280;16357;52.188;7.838;2022-09-09T11:36:56;100117.47;;;26.82;40.07
29371;BME280;16357;52.188;7.838;2022-09-09T11:39:38;100126.03;;;26.76;39.91
29371;BME280;16357;52.188;7.838;2022-09-09T11:44:39;100153.53;;;26.50;40.75
29371;BME280;16357;52.188;7.838;2022-09-09T11:47:21;100145.31;;;26.30;40.61
29371;BME280;16357;52.188;7.838;2022-09-09T11:49:51;100146.97;;;26.05;40.81
29371;BME280;16357;52.188;7.838;2022-09-09T11:52:35;100140.31;;;25.80;42.30
29371;BME280;16357;52.188;7.838;2022-09-09T11:55:34;100142.16;;;25.54;42.63
29371;BME280;16357;52.188;7.838;2022-09-09T11:58:04;100139.63;;;25.32;42.37
29371;BME280;16357;52.188;7.838;2022-09-09T12:00:38;100135.16;;;25.16;43.59
29371;BME280;16357;52.188;7.838;2022-09-09T12:03:43;100130.13;;;25.03;45.00
29371;BME280;16357;52.188;7.838;2022-09-09T12:06:33;100127.63;;;24.96;45.64
29371;BME280;16357;52.188;7.838;2022-09-09T12:09:23;100128.16;;;24.93;45.31
29371;BME280;16357;52.188;7.838;2022-09-09T12:11:51;100130.66;;;24.94;46.73
29371;BME280;16357;52.188;7.838;2022-09-09T12:14:23;100126.00;;;25.00;46.29
29371;BME280;16357;52.188;7.838;2022-09-09T12:17:28;100117.81;;;25.10;46.01
29371;BME280;16357;52.188;7.838;2022-09-09T12:20:11;100116.53;;;25.23;46.21
29371;BME280;16357;52.188;7.838;2022-09-09T12:30:32;100101.53;;;25.82;45.18
29371;BME280;16357;52.188;7.838;2022-09-09T12:33:02;100105.16;;;25.93;44.63
29371;BME280;16357;52.188;7.838;2022-09-09T12:35:35;100109.28;;;26.00;43.56
29371;BME280;16357;52.188;7.838;2022-09-09T12:38:05;100102.41;;;26.03;43.73
29371;BME280;16357;52.188;7.838;2022-09-09T12:40:37;100101.31;;;26.04;43.45
29371;BME280;16357;52.188;7.838;2022-09-09T12:43:19;100101.59;;;26.02;43.26
29371;BME280;16357;52.188;7.838;2022-09-09T12:45:49;100093.91;;;25.99;43.23
29371;BME280;16357;52.188;7.838;2022-09-09T12:48:18;100095.84;;;25.99;43.50
29371;BME280;16357;52.188;7.838;2022-09-09T12:50:49;100079.88;;;26.01;43.31
29371;BME280;16357;52.188;7.838;2022-09-09T12:53:26;100078.78;;;26.07;43.34
29371;BME280;16357;52.188;7.838;2022-09-09T12:55:57;100081.53;;;26.12;42.83
29371;BME280;16357;52.188;7.838;2022-09-09T12:58:25;100085.66;;;26.15;42.66
29371;BME280;16357;52.188;7.838;2022-09-09T13:00:55;100080.41;;;26.18;41.59
29371;BME280;16357;52.188;7.838;2022-09-09T13:03:26;100083.72;;;26.20;40.65
29371;BME280;16357;52.188;7.838;2022-09-09T13:05:58;100072.16;;;26.23;40.51
29371;BME280;16357;52.188;7.838;2022-09-09T13:08:26;100075.47;;;26.25;40.56
29371;BME280;16357;52.188;7.838;2022-09-09T13:10:59;100076.53;;;26.30;40.92
29371;BME280;16357;52.188;7.838;2022-09-09T13:13:36;100081.78;;;26.36;40.88
29371;BME280;16357;52.188;7.838;2022-09-09T13:16:06;100076.53;;;26.45;40.10
29371;BME280;16357;52.188;7.838;2022-09-09T13:18:36;100067.47;;;26.55;39.63
29371;BME280;16357;52.188;7.838;2022-09-09T13:21:04;100068.25;;;26.65;39.57
29371;BME280;16357;52.188;7.838;2022-09-09T13:23:33;100064.09;;;26.73;38.88
29371;BME280;16357;52.188;7.838;2022-09-09T13:26:05;100062.97;;;26.79;39.29
29371;BME280;16357;52.188;7.838;2022-09-09T13:28:34;100068.72;;;26.83;38.18
29371;BME280;16357;52.188;7.838;2022-09-09T13:31:06;100066.53;;;26.85;38.53
29371;BME280;16357;52.188;7.838;2022-09-09T13:33:45;100058.81;;;26.87;38.09
29371;BME280;16357;52.188;7.838;2022-09-09T13:36:12;100048.34;;;26.89;37.75
29371;BME280;16357;52.188;7.838;2022-09-09T13:38:55;100062.63;;;26.96;38.79
29371;BME280;16357;52.188;7.838;2022-09-09T13:41:24;100055.47;;;27.00;38.24
29371;BME280;16357;52.188;7.838;2022-09-09T13:43:51;100050.47;;;27.07;38.49
29371;BME280;16357;52.188;7.838;2022-09-09T13:46:26;100051.50;;;27.17;38.25
29371;BME280;16357;52.188;7.838;2022-09-09T13:48:59;100042.97;;;27.23;38.13
29371;BME280;16357;52.188;7.838;2022-09-09T13:51:38;100052.03;;;27.29;37.67
29371;BME280;16357;52.188;7.838;2022-09-09T13:54:06;100060.53;;;27.32;37.53
29371;BME280;16357;52.188;7.838;2022-09-09T13:56:33;100056.69;;;27.33;37.17
29371;BME280;16357;52.188;7.838;2022-09-09T13:59:02;100058.59;;;27.33;36.82
29371;BME280;16357;52.188;7.838;2022-09-09T14:01:29;100060.53;;;27.32;35.95
29371;BME280;16357;52.188;7.838;2022-09-09T14:03:56;100063.31;;;27.27;36.31
29371;BME280;16357;52.188;7.838;2022-09-09T14:06:23;100076.88;;;27.19;36.33
29371;BME280;16357;52.188;7.838;2022-09-09T14:08:50;100082.41;;;27.08;36.53
29371;BME280;16357;52.188;7.838;2022-09-09T14:11:17;100085.22;;;26.93;36.79
29371;BME280;16357;52.188;7.838;2022-09-09T14:13:44;100110.59;;;26.75;37.96
29371;BME280;16357;52.188;7.838;2022-09-09T14:16:11;100117.56;;;26.52;38.59
29371;BME280;16357;52.188;7.838;2022-09-09T14:18:38;100124.97;;;26.25;39.58
29371;BME280;16357;52.188;7.838;2022-09-09T14:21:05;100123.31;;;25.99;40.51
29371;BME280;16357;52.188;7.838;2022-09-09T14:23:31;100119.41;;;25.74;41.51
29371;BME280;16357;52.188;7.838;2022-09-09T14:25:58;100123.47;;;25.51;42.39
29371;BME280;16357;52.188;7.838;2022-09-09T14:28:25;100125.91;;;25.37;43.17
29371;BME280;16357;52.188;7.838;2022-09-09T14:31:11;100118.47;;;25.28;43.61
29371;BME280;16357;52.188;7.838;2022-09-09T14:33:40;100113.78;;;25.23;44.25
29371;BME280;16357;52.188;7.838;2022-09-09T14:36:06;100115.16;;;25.26;44.29
29371;BME280;16357;52.188;7.838;2022-09-09T14:38:35;100111.59;;;25.30;44.68
29371;BME280;16357;52.188;7.838;2022-09-09T14:41:06;100115.19;;;25.36;43.96